Time;durP1;ratioP1;P1;durP2;ratioP2;P2;SDS_P1;SDS_P2;PMS_P1;PMS_P2;Temp;Humidity;BMP_temperature;BMP_pressure;BME280_temperature;BME280_humidity;BME280_pressure;Samples;Min_cycle;Max_cycle;Signal;HPM_P1;HPM_P2
2023/05/03 00:00:09;;;;;;;12.60;5.35;;;11.10;47.60;;;;;;5033269;28;20460;-46
2023/05/03 00:02:38;;;;;;;12.88;4.75;;;11.00;47.60;;;;;;5032696;28;20049;-46
2023/05/03 00:05:08;;;;;;;12.52;5.22;;;11.00;47.70;;;;;;5037798;28;20057;-49
2023/05/03 00:07:35;;;;;;;12.80;5.20;;;11.00;47.80;;;;;;5038087;28;20057;-47
2023/05/03 00:10:05;;;;;;;14.68;5.90;;;10.90;47.80;;;;;;5035770;28;20049;-50
2023/05/03 00:12:32;;;;;;;10.13;5.13;;;10.90;47.80;;;;;;5036500;28;20064;-46
2023/05/03 00:15:00;;;;;;;10.98;4.88;;;10.80;47.80;;;;;;5030984;28;20053;-49
2023/05/03 00:17:27;;;;;;;14.07;5.65;;;10.80;47.90;;;;;;5038511;28;20061;-48
2023/05/03 00:19:55;;;;;;;9.38;4.80;;;10.80;48.00;;;;;;5037044;28;20056;-50
2023/05/03 00:22:22;;;;;;;11.85;5.30;;;10.80;48.00;;;;;;5040682;28;20328;-45
2023/05/03 00:24:50;;;;;;;10.82;5.47;;;10.70;48.00;;;;;;5034322;28;20060;-48
2023/05/03 00:27:19;;;;;;;13.82;5.15;;;10.70;48.00;;;;;;5040829;28;20485;-46
2023/05/03 00:29:46;;;;;;;8.95;4.80;;;10.70;48.10;;;;;;5039858;28;20497;-49
2023/05/03 00:32:13;;;;;;;16.63;4.90;;;10.60;48.00;;;;;;5035951;28;20056;-51
2023/05/03 00:34:41;;;;;;;10.98;5.05;;;10.60;48.10;;;;;;5036860;28;20048;-51
2023/05/03 00:37:08;;;;;;;17.75;5.75;;;10.60;48.10;;;;;;5038801;28;20067;-51
2023/05/03 00:39:35;;;;;;;13.05;5.00;;;10.50;48.10;;;;;;5042202;28;20049;-49
2023/05/03 00:42:03;;;;;;;12.10;5.90;;;10.50;48.10;;;;;;5036758;28;20045;-47
2023/05/03 00:44:32;;;;;;;14.15;6.28;;;10.50;48.10;;;;;;5040550;28;20057;-51
2023/05/03 00:47:01;;;;;;;11.88;5.22;;;10.50;48.20;;;;;;5035641;28;20053;-46
2023/05/03 00:49:28;;;;;;;9.65;4.97;;;10.50;48.20;;;;;;5040312;28;20053;-48
2023/05/03 00:51:58;;;;;;;11.20;6.18;;;10.40;48.20;;;;;;5040024;28;20056;-49
2023/05/03 00:54:27;;;;;;;13.13;5.60;;;10.40;48.20;;;;;;5040607;28;20045;-48
2023/05/03 00:56:56;;;;;;;15.10;5.93;;;10.40;48.20;;;;;;5042752;28;20377;-48
2023/05/03 00:59:23;;;;;;;14.60;5.43;;;10.40;48.30;;;;;;5036302;28;20071;-46
2023/05/03 01:01:52;;;;;;;13.40;5.90;;;10.30;48.20;;;;;;5038714;28;20516;-47
2023/05/03 01:04:22;;;;;;;12.07;5.30;;;10.30;48.20;;;;;;5038656;23;20064;-46
2023/05/03 01:07:01;;;;;;;14.02;5.85;;;10.30;48.30;;;;;;5004209;28;20073;-45
2023/05/03 01:09:36;;;;;;;12.80;5.45;;;10.30;48.30;;;;;;5018968;28;20053;-45
2023/05/03 01:12:15;;;;;;;10.05;5.45;;;10.20;48.30;;;;;;5022909;28;20488;-46
2023/05/03 01:14:51;;;;;;;11.38;5.43;;;10.20;48.40;;;;;;5022563;28;20465;-50
2023/05/03 01:17:25;;;;;;;11.27;5.32;;;10.20;48.40;;;;;;5017115;28;20057;-45
2023/05/03 01:19:55;;;;;;;;;;;10.20;48.40;;;;;;5023045;28;20496;-45
2023/05/03 01:22:37;;;;;;;14.55;6.90;;;10.20;48.40;;;;;;5024082;28;19925;-47
2023/05/03 01:25:08;;;;;;;11.20;5.55;;;10.20;48.20;;;;;;5022908;28;20069;-48
2023/05/03 01:27:35;;;;;;;8.75;4.72;;;10.20;48.30;;;;;;5019552;28;20424;-46
2023/05/03 01:30:04;;;;;;;9.73;4.97;;;10.10;48.40;;;;;;5020534;28;20064;-45
2023/05/03 01:32:40;;;;;;;10.05;5.38;;;10.10;48.60;;;;;;5016993;28;20058;-46
2023/05/03 01:35:15;;;;;;;10.43;5.10;;;10.10;48.70;;;;;;5022366;28;20053;-45
2023/05/03 01:37:43;;;;;;;9.88;4.68;;;10.10;48.80;;;;;;5020127;28;20052;-47
2023/05/03 01:40:15;;;;;;;8.52;4.93;;;10.00;48.90;;;;;;5022428;28;20068;-46
2023/05/03 01:42:44;;;;;;;10.77;4.88;;;10.00;49.00;;;;;;5021900;28;20053;-46
2023/05/03 01:45:12;;;;;;;12.68;4.68;;;10.00;49.10;;;;;;5018741;28;20060;-47
2023/05/03 01:47:39;;;;;;;9.40;4.50;;;10.00;49.10;;;;;;5020004;28;20053;-45
2023/05/03 01:50:07;;;;;;;14.55;5.30;;;9.90;49.10;;;;;;5021439;28;20409;-45
2023/05/03 01:52:34;;;;;;;13.50;5.55;;;9.90;49.10;;;;;;5020373;28;20425;-45
2023/05/03 01:55:02;;;;;;;10.52;4.70;;;9.90;49.10;;;;;;5022110;28;20049;-47
2023/05/03 01:57:30;;;;;;;10.93;5.05;;;9.90;49.10;;;;;;5021561;28;20060;-45
2023/05/03 01:59:57;;;;;;;10.55;4.97;;;9.80;49.10;;;;;;5021401;28;20076;-45
2023/05/03 02:02:25;;;;;;;9.70;4.60;;;9.80;49.10;;;;;;5019428;28;20664;-45
2023/05/03 02:04:52;;;;;;;10.13;4.50;;;9.80;49.20;;;;;;5039282;28;20072;-47
2023/05/03 02:07:19;;;;;;;10.57;5.05;;;9.80;49.20;;;;;;5042225;28;20542;-45
2023/05/03 02:09:47;;;;;;;9.35;5.13;;;9.70;49.20;;;;;;5041452;28;20048;-45
2023/05/03 02:12:14;;;;;;;13.68;5.90;;;9.70;49.30;;;;;;5037626;28;20052;-46
2023/05/03 02:14:42;;;;;;;9.63;4.90;;;9.60;49.30;;;;;;5040073;28;20180;-48
2023/05/03 02:17:10;;;;;;;10.65;4.47;;;9.60;49.30;;;;;;5039399;28;20059;-48
2023/05/03 02:19:37;;;;;;;9.95;4.93;;;9.60;49.30;;;;;;5041993;28;20049;-47
2023/05/03 02:22:04;;;;;;;11.05;5.25;;;9.60;49.30;;;;;;5039077;28;20055;-46
2023/05/03 02:24:35;;;;;;;11.70;5.70;;;9.50;49.30;;;;;;5038834;28;20416;-47
2023/05/03 02:27:03;;;;;;;10.55;4.93;;;9.50;49.30;;;;;;5039421;28;20052;-45
2023/05/03 02:29:31;;;;;;;15.27;5.72;;;9.50;49.30;;;;;;5036956;28;20055;-45
2023/05/03 02:31:59;;;;;;;10.65;5.22;;;9.40;49.40;;;;;;5033701;28;20888;-48
2023/05/03 02:34:27;;;;;;;9.82;4.88;;;9.40;49.50;;;;;;5039441;28;20519;-47
2023/05/03 02:36:54;;;;;;;10.43;5.32;;;9.40;49.60;;;;;;5040281;28;20412;-45
2023/05/03 02:39:21;;;;;;;11.75;5.25;;;9.40;49.60;;;;;;5039823;28;20052;-45
2023/05/03 02:41:49;;;;;;;16.73;5.32;;;9.30;49.70;;;;;;5040550;28;20053;-47
2023/05/03 02:44:16;;;;;;;9.90;5.18;;;9.30;49.80;;;;;;5040631;28;20740;-45
2023/05/03 02:46:43;;;;;;;10.15;5.80;;;9.20;49.70;;;;;;5040706;28;20056;-45
2023/05/03 02:49:12;;;;;;;9.70;5.43;;;9.20;49.80;;;;;;5042240;28;20409;-46
2023/05/03 02:51:39;;;;;;;11.88;6.30;;;9.20;49.80;;;;;;5040157;28;20068;-46
2023/05/03 02:54:06;;;;;;;13.57;5.78;;;9.20;49.90;;;;;;5038518;28;20048;-45
2023/05/03 02:56:33;;;;;;;11.95;5.75;;;9.20;50.00;;;;;;5037673;28;20053;-45
2023/05/03 02:59:00;;;;;;;13.60;6.30;;;9.10;50.00;;;;;;5039263;28;20491;-46
2023/05/03 03:01:28;;;;;;;10.05;5.68;;;9.10;50.10;;;;;;5040142;28;20064;-45
2023/05/03 03:03:55;;;;;;;13.15;6.07;;;9.10;50.10;;;;;;5029867;28;20049;-45
2023/05/03 03:06:24;;;;;;;14.13;6.10;;;9.10;50.10;;;;;;5017671;28;20060;-45
2023/05/03 03:08:51;;;;;;;12.00;6.20;;;9.00;50.20;;;;;;5017534;28;20072;-47
2023/05/03 03:11:19;;;;;;;12.02;5.85;;;9.00;50.20;;;;;;5017179;28;20054;-45
2023/05/03 03:13:46;;;;;;;12.63;6.40;;;9.00;50.30;;;;;;5018661;28;20057;-46
2023/05/03 03:16:13;;;;;;;11.68;6.22;;;9.00;50.30;;;;;;5015243;28;20057;-46
2023/05/03 03:18:40;;;;;;;11.35;6.47;;;9.00;50.30;;;;;;5017214;28;20049;-47
2023/05/03 03:21:08;;;;;;;11.25;6.22;;;8.90;50.40;;;;;;5018551;28;20056;-45
2023/05/03 03:23:36;;;;;;;11.20;6.10;;;8.90;50.40;;;;;;5019914;28;20409;-46
2023/05/03 03:26:03;;;;;;;13.93;6.72;;;8.90;50.40;;;;;;5016090;28;20045;-46
2023/05/03 03:28:31;;;;;;;11.30;6.97;;;8.80;51.00;;;;;;5017057;28;21060;-46
2023/05/03 03:30:58;;;;;;;14.52;6.65;;;8.80;50.50;;;;;;5014959;28;20072;-45
2023/05/03 03:33:26;;;;;;;12.27;6.75;;;8.80;50.50;;;;;;5017212;28;20053;-46
2023/05/03 03:35:53;;;;;;;14.27;7.22;;;8.80;51.00;;;;;;5017371;28;21523;-46
2023/05/03 03:38:20;;;;;;;18.52;7.82;;;8.80;50.60;;;;;;5015547;28;21119;-45
2023/05/03 03:40:49;;;;;;;11.10;6.40;;;8.70;50.60;;;;;;5018970;28;20060;-47
2023/05/03 03:43:16;;;;;;;13.35;7.38;;;8.70;50.60;;;;;;5019275;28;20049;-45
2023/05/03 03:45:43;;;;;;;11.00;6.00;;;8.70;50.60;;;;;;5011632;28;20049;-48
2023/05/03 03:48:10;;;;;;;12.02;6.70;;;8.70;50.70;;;;;;5018677;28;20508;-45
2023/05/03 03:50:38;;;;;;;15.85;6.78;;;8.70;50.70;;;;;;5018283;28;20046;-46
2023/05/03 03:53:05;;;;;;;12.95;6.65;;;8.60;50.70;;;;;;5016366;28;20060;-46
2023/05/03 03:55:32;;;;;;;15.48;6.65;;;8.60;50.80;;;;;;5016436;28;20050;-47
2023/05/03 03:58:01;;;;;;;10.23;6.10;;;8.60;50.90;;;;;;5018942;28;20060;-45
2023/05/03 04:00:28;;;;;;;13.07;6.72;;;8.60;51.00;;;;;;5016190;28;20408;-45
2023/05/03 04:02:56;;;;;;;13.95;7.45;;;8.60;51.00;;;;;;5013363;28;20068;-45
2023/05/03 04:05:23;;;;;;;11.23;6.90;;;8.60;51.00;;;;;;5036347;28;20060;-45
2023/05/03 04:07:50;;;;;;;10.65;6.63;;;8.50;51.00;;;;;;5037000;28;20048;-46
2023/05/03 04:10:17;;;;;;;12.00;6.82;;;8.50;51.00;;;;;;5037516;28;20056;-45
2023/05/03 04:12:44;;;;;;;11.02;6.80;;;8.50;51.00;;;;;;5035420;28;20053;-45
2023/05/03 04:15:13;;;;;;;14.20;7.10;;;8.50;51.10;;;;;;5035047;28;20057;-46
2023/05/03 04:17:40;;;;;;;15.63;6.50;;;8.50;51.20;;;;;;5034546;28;20493;-45
2023/05/03 04:20:09;;;;;;;14.95;7.13;;;8.50;51.20;;;;;;5033682;28;20054;-45
2023/05/03 04:22:38;;;;;;;14.82;7.00;;;8.40;51.10;;;;;;5036851;28;20060;-46
2023/05/03 04:25:08;;;;;;;14.93;7.53;;;8.40;51.10;;;;;;5036721;28;20350;-45
2023/05/03 04:27:37;;;;;;;12.32;6.25;;;8.40;51.20;;;;;;5036864;28;20079;-46
2023/05/03 04:30:05;;;;;;;10.43;6.22;;;8.40;51.20;;;;;;5033747;28;20053;-46
2023/05/03 04:32:36;;;;;;;10.20;6.63;;;8.40;51.20;;;;;;5033566;28;20057;-47
2023/05/03 04:35:04;;;;;;;13.88;7.28;;;8.40;51.30;;;;;;5039399;28;20068;-46
2023/05/03 04:37:31;;;;;;;11.68;6.47;;;8.40;51.40;;;;;;5041020;28;20057;-45
2023/05/03 04:39:59;;;;;;;15.13;8.13;;;8.40;51.40;;;;;;5038762;28;20063;-46
2023/05/03 04:42:27;;;;;;;11.98;6.63;;;8.40;51.40;;;;;;5036697;28;20056;-46
2023/05/03 04:44:54;;;;;;;16.45;8.32;;;8.40;51.30;;;;;;5036781;28;20053;-45
2023/05/03 04:47:21;;;;;;;14.27;7.53;;;8.30;51.30;;;;;;5037097;28;20060;-45
2023/05/03 04:49:50;;;;;;;12.50;6.82;;;8.30;51.40;;;;;;5038454;28;20575;-48
2023/05/03 04:52:17;;;;;;;10.15;6.85;;;8.30;51.90;;;;;;5035997;28;20064;-46
2023/05/03 04:54:44;;;;;;;10.77;6.60;;;8.30;51.50;;;;;;5038070;28;20427;-46
2023/05/03 04:57:12;;;;;;;81.18;29.17;;;8.30;51.60;;;;;;5036139;28;20045;-49
2023/05/03 04:59:39;;;;;;;54.13;21.63;;;8.30;51.70;;;;;;5034156;28;20053;-45
2023/05/03 05:02:07;;;;;;;22.08;11.05;;;8.30;51.80;;;;;;5037222;28;20049;-45
2023/05/03 05:04:34;;;;;;;13.60;8.23;;;8.30;51.90;;;;;;5036431;28;20072;-45
2023/05/03 05:07:02;;;;;;;13.65;7.82;;;8.30;51.90;;;;;;5040983;28;20053;-45
2023/05/03 05:09:30;;;;;;;13.23;7.95;;;8.40;52.00;;;;;;5041179;28;20697;-46
2023/05/03 05:11:58;;;;;;;12.82;7.22;;;8.30;52.00;;;;;;5037116;28;20049;-48
2023/05/03 05:14:27;;;;;;;11.00;6.20;;;8.30;52.00;;;;;;5040426;28;20052;-47
2023/05/03 05:16:54;;;;;;;14.23;6.90;;;8.40;52.10;;;;;;5039886;28;20166;-45
2023/05/03 05:19:22;;;;;;;11.55;7.15;;;8.40;52.00;;;;;;5037707;28;20398;-49
2023/05/03 05:21:49;;;;;;;12.30;7.13;;;8.40;52.10;;;;;;5040417;28;20052;-45
2023/05/03 05:24:18;;;;;;;13.75;7.85;;;8.40;52.10;;;;;;5042099;28;20045;-46
2023/05/03 05:26:45;;;;;;;11.98;7.30;;;8.40;52.30;;;;;;5039918;28;20052;-46
2023/05/03 05:29:12;;;;;;;11.63;6.75;;;8.40;52.40;;;;;;5037230;28;20057;-45
2023/05/03 05:31:40;;;;;;;13.02;6.57;;;8.50;52.40;;;;;;5038874;28;20049;-45
2023/05/03 05:34:07;;;;;;;15.93;7.05;;;8.50;52.50;;;;;;5037861;28;20045;-46
2023/05/03 05:36:34;;;;;;;13.43;7.07;;;8.50;52.50;;;;;;5041234;28;20064;-45
2023/05/03 05:39:02;;;;;;;17.85;8.40;;;8.60;52.60;;;;;;5042255;28;20496;-45
2023/05/03 05:41:31;;;;;;;16.00;7.70;;;8.60;52.60;;;;;;5038775;28;20489;-48
2023/05/03 05:43:58;;;;;;;11.77;6.60;;;8.70;52.80;;;;;;5037178;28;20056;-46
2023/05/03 05:46:25;;;;;;;14.68;7.22;;;8.70;52.80;;;;;;5037411;28;20451;-49
2023/05/03 05:48:53;;;;;;;16.52;6.90;;;8.80;52.80;;;;;;5039374;28;20412;-45
2023/05/03 05:51:20;;;;;;;31.25;14.07;;;8.80;52.80;;;;;;5039847;28;20048;-45
2023/05/03 05:53:47;;;;;;;16.38;8.57;;;8.90;52.80;;;;;;5042124;28;20064;-46
2023/05/03 05:56:15;;;;;;;13.18;7.53;;;8.90;52.80;;;;;;5043973;28;20079;-46
2023/05/03 05:58:43;;;;;;;10.75;6.20;;;9.00;52.80;;;;;;5044301;28;20520;-45
2023/05/03 06:01:10;;;;;;;15.35;7.85;;;9.00;52.70;;;;;;5040246;28;20396;-45
2023/05/03 06:03:38;;;;;;;19.88;8.38;;;9.10;52.70;;;;;;5042034;28;20057;-46
2023/05/03 06:06:05;;;;;;;20.63;9.35;;;9.10;52.70;;;;;;5043629;28;20080;-47
2023/05/03 06:08:33;;;;;;;17.20;7.95;;;9.20;52.60;;;;;;5043194;28;20594;-46
2023/05/03 06:11:00;;;;;;;13.90;8.23;;;9.20;52.60;;;;;;5041090;28;20069;-45
2023/05/03 06:13:27;;;;;;;15.15;7.50;;;9.30;52.60;;;;;;5043715;28;20397;-48
2023/05/03 06:15:56;;;;;;;12.60;7.13;;;9.30;52.60;;;;;;5042108;28;20424;-46
2023/05/03 06:18:23;;;;;;;14.15;7.90;;;9.40;52.60;;;;;;5039795;28;20056;-47
2023/05/03 06:20:51;;;;;;;20.48;9.60;;;9.40;52.60;;;;;;5042952;28;20053;-46
2023/05/03 06:23:18;;;;;;;13.70;8.02;;;9.50;52.60;;;;;;5043689;28;20408;-46
2023/05/03 06:25:47;;;;;;;13.30;7.53;;;9.60;52.60;;;;;;5043149;28;20198;-46
2023/05/03 06:28:14;;;;;;;20.60;8.60;;;9.60;53.10;;;;;;5040541;28;20064;-48
2023/05/03 06:30:41;;;;;;;17.38;8.27;;;9.70;52.80;;;;;;5040581;28;20051;-46
2023/05/03 06:33:12;;;;;;;16.15;7.78;;;9.80;52.90;;;;;;5041704;28;20057;-46
2023/05/03 06:35:40;;;;;;;15.55;7.95;;;9.80;52.70;;;;;;5039232;28;20052;-47
2023/05/03 06:38:08;;;;;;;11.40;7.63;;;9.90;52.70;;;;;;5040737;28;20163;-47
2023/05/03 06:40:35;;;;;;;12.27;7.85;;;9.90;52.70;;;;;;5042899;28;20060;-45
2023/05/03 06:43:02;;;;;;;17.23;8.57;;;10.00;52.70;;;;;;5040483;28;20053;-46
2023/05/03 06:45:29;;;;;;;14.25;8.02;;;10.00;52.70;;;;;;5040614;28;20064;-51
2023/05/03 06:47:57;;;;;;;14.48;8.07;;;10.10;52.70;;;;;;5043013;28;20064;-45
2023/05/03 06:50:25;;;;;;;13.05;7.82;;;10.20;52.70;;;;;;5041096;28;20056;-45
2023/05/03 06:52:53;;;;;;;13.60;6.90;;;10.30;52.70;;;;;;5040507;28;20057;-45
2023/05/03 06:55:21;;;;;;;19.35;8.55;;;10.30;52.60;;;;;;5039950;28;20067;-45
2023/05/03 06:57:51;;;;;;;16.55;8.45;;;10.40;52.70;;;;;;5042674;28;20057;-45
2023/05/03 07:00:20;;;;;;;14.05;8.32;;;10.50;52.80;;;;;;5038404;28;20524;-46
2023/05/03 07:02:47;;;;;;;20.90;8.40;;;10.50;52.30;;;;;;5041904;28;20386;-45
2023/05/03 07:05:15;;;;;;;19.60;9.40;;;10.50;51.70;;;;;;5041189;28;20057;-46
2023/05/03 07:07:43;;;;;;;17.40;8.88;;;10.50;51.40;;;;;;5042045;28;20063;-47
2023/05/03 07:10:11;;;;;;;18.27;8.70;;;10.60;51.60;;;;;;5040563;28;20056;-46
2023/05/03 07:12:38;;;;;;;16.05;8.55;;;10.60;51.30;;;;;;5041341;28;20485;-45
2023/05/03 07:15:06;;;;;;;20.38;9.95;;;10.60;51.20;;;;;;5040746;28;20057;-46
2023/05/03 07:17:33;;;;;;;19.88;9.00;;;10.50;51.70;;;;;;5039882;28;20413;-46
2023/05/03 07:20:00;;;;;;;17.75;8.60;;;10.50;51.40;;;;;;5041748;28;20049;-45
2023/05/03 07:22:27;;;;;;;17.73;7.38;;;10.50;51.20;;;;;;5041107;28;20048;-45
2023/05/03 07:24:58;;;;;;;15.93;7.65;;;10.60;51.30;;;;;;5041893;28;20076;-45
2023/05/03 07:27:25;;;;;;;14.57;6.60;;;10.60;51.50;;;;;;5042567;28;20413;-48
2023/05/03 07:29:53;;;;;;;16.00;7.00;;;10.60;51.70;;;;;;5040443;28;20485;-46
2023/05/03 07:32:21;;;;;;;13.45;7.30;;;10.70;51.70;;;;;;5040349;28;20404;-45
2023/05/03 07:34:48;;;;;;;12.70;6.72;;;10.70;51.50;;;;;;5040684;28;20048;-45
2023/05/03 07:37:16;;;;;;;11.88;6.00;;;10.80;51.40;;;;;;5040848;28;20049;-49
2023/05/03 07:39:44;;;;;;;11.40;6.30;;;10.80;51.40;;;;;;5041848;28;20060;-45
2023/05/03 07:42:13;;;;;;;15.70;7.40;;;10.90;51.50;;;;;;5040592;28;20055;-45
2023/05/03 07:44:40;;;;;;;15.65;6.90;;;11.00;51.10;;;;;;5040427;28;20507;-45
2023/05/03 07:47:07;;;;;;;12.27;5.95;;;11.10;50.90;;;;;;5039320;28;20049;-46
2023/05/03 07:49:37;;;;;;;13.73;6.47;;;11.10;50.70;;;;;;5041712;28;20048;-46
2023/05/03 07:52:04;;;;;;;9.23;5.53;;;11.20;50.90;;;;;;5039408;28;20053;-45
2023/05/03 07:54:31;;;;;;;9.55;5.35;;;11.30;51.00;;;;;;5040416;28;20056;-46
2023/05/03 07:56:58;;;;;;;8.15;4.72;;;11.40;51.20;;;;;;5041454;28;20404;-46
2023/05/03 07:59:27;;;;;;;14.20;5.80;;;11.50;51.10;;;;;;5041425;28;20061;-46
2023/05/03 08:01:54;;;;;;;12.93;5.68;;;11.50;51.10;;;;;;5038102;28;20076;-46
2023/05/03 08:04:23;;;;;;;11.45;5.68;;;11.60;51.00;;;;;;5038653;28;20540;-46
2023/05/03 08:06:50;;;;;;;7.82;4.70;;;11.70;51.10;;;;;;5037987;28;20052;-46
2023/05/03 08:09:17;;;;;;;10.48;5.15;;;11.80;51.00;;;;;;5040070;28;20045;-45
2023/05/03 08:11:44;;;;;;;10.48;6.10;;;11.90;50.60;;;;;;5039940;28;20060;-46
2023/05/03 08:14:12;;;;;;;9.77;5.50;;;12.00;50.50;;;;;;5039943;28;20076;-46
2023/05/03 08:16:41;;;;;;;8.55;5.03;;;12.10;50.50;;;;;;5038801;28;20416;-46
2023/05/03 08:19:08;;;;;;;9.32;4.95;;;12.20;50.30;;;;;;5041452;28;20072;-48
2023/05/03 08:21:35;;;;;;;10.15;5.05;;;12.20;50.00;;;;;;5041322;28;20053;-48
2023/05/03 08:24:04;;;;;;;10.80;5.18;;;12.30;49.90;;;;;;5037146;28;20053;-45
2023/05/03 08:26:32;;;;;;;16.02;5.47;;;12.40;49.90;;;;;;5041533;28;20055;-46
2023/05/03 08:28:59;;;;;;;8.88;4.80;;;12.50;49.60;;;;;;5038853;28;20057;-48
2023/05/03 08:31:26;;;;;;;9.60;4.78;;;12.60;49.50;;;;;;5038515;28;20518;-46
2023/05/03 08:33:55;;;;;;;9.18;5.38;;;12.60;49.40;;;;;;5040052;28;20053;-47
2023/05/03 08:36:22;;;;;;;9.07;4.60;;;12.70;49.20;;;;;;5041047;28;20064;-48
2023/05/03 08:38:50;;;;;;;13.35;4.82;;;12.80;49.20;;;;;;5038440;28;20056;-46
2023/05/03 08:41:22;;;;;;;12.15;5.32;;;12.80;49.00;;;;;;5041879;28;20432;-46
2023/05/03 08:43:53;;;;;;;10.40;5.05;;;12.90;48.90;;;;;;5045296;28;20052;-46
2023/05/03 08:46:20;;;;;;;9.35;5.18;;;12.90;48.90;;;;;;5040292;28;20056;-46
2023/05/03 08:48:49;;;;;;;11.57;5.60;;;13.00;48.70;;;;;;5044636;28;20049;-47
2023/05/03 08:51:18;;;;;;;11.93;5.78;;;13.00;48.40;;;;;;5044196;28;20048;-46
2023/05/03 08:53:45;;;;;;;11.80;5.20;;;13.10;48.40;;;;;;5045357;28;20049;-49
2023/05/03 08:56:16;;;;;;;15.35;5.40;;;13.20;48.40;;;;;;5042585;28;20053;-48
2023/05/03 08:58:44;;;;;;;8.35;4.47;;;13.20;48.20;;;;;;5044651;28;20060;-46
2023/05/03 09:01:13;;;;;;;10.52;5.45;;;13.30;48.20;;;;;;5040878;28;20412;-47
2023/05/03 09:03:41;;;;;;;15.57;5.15;;;13.30;47.90;;;;;;5043395;28;20056;-47
2023/05/03 09:06:24;;;;;;;15.45;5.10;;;13.40;48.00;;;;;;5044387;28;20124;-46
2023/05/03 09:08:52;;;;;;;11.98;5.38;;;13.40;47.70;;;;;;5044055;28;20048;-46
2023/05/03 09:11:23;;;;;;;10.23;5.90;;;13.50;47.80;;;;;;5044881;28;20053;-47
2023/05/03 09:13:52;;;;;;;7.85;4.93;;;13.50;46.40;;;;;;5044442;28;20045;-46
2023/05/03 09:16:23;;;;;;;10.25;4.57;;;13.60;46.30;;;;;;5041771;28;21367;-47
2023/05/03 09:18:57;;;;;;;10.20;4.78;;;13.60;46.80;;;;;;5044656;28;20465;-49
2023/05/03 09:21:25;;;;;;;;;;;13.70;47.00;;;;;;5041682;28;20481;-49
2023/05/03 09:23:52;;;;;;;14.50;6.10;;;13.80;47.40;;;;;;5044417;28;19924;-46
2023/05/03 09:26:30;;;;;;;9.63;4.45;;;13.80;46.90;;;;;;5042687;28;20053;-47
2023/05/03 09:28:59;;;;;;;8.60;4.72;;;13.90;46.60;;;;;;5044296;28;20064;-49
2023/05/03 09:31:26;;;;;;;12.32;5.00;;;13.90;46.60;;;;;;5039839;28;20048;-48
2023/05/03 09:33:53;;;;;;;8.18;4.15;;;13.90;46.00;;;;;;5041787;28;20505;-48
2023/05/03 09:36:20;;;;;;;9.27;4.60;;;14.00;46.20;;;;;;5042087;28;20048;-46
2023/05/03 09:38:50;;;;;;;8.98;4.55;;;14.10;46.20;;;;;;5044439;28;20508;-46
2023/05/03 09:41:27;;;;;;;8.30;4.20;;;14.10;46.20;;;;;;5042262;28;20057;-47
2023/05/03 09:43:55;;;;;;;9.63;4.32;;;14.10;45.90;;;;;;5042849;28;20416;-46
2023/05/03 09:46:24;;;;;;;9.00;4.72;;;14.20;46.20;;;;;;5039503;28;20049;-46
2023/05/03 09:48:55;;;;;;;9.38;4.90;;;14.20;45.50;;;;;;5041171;28;20522;-45
2023/05/03 09:51:23;;;;;;;6.63;3.80;;;14.30;45.60;;;;;;5039232;28;20412;-50
2023/05/03 09:53:52;;;;;;;7.72;4.53;;;14.30;46.00;;;;;;5041765;28;20056;-51
2023/05/03 09:56:25;;;;;;;6.20;3.95;;;14.30;45.90;;;;;;5043225;28;20424;-47
2023/05/03 09:58:53;;;;;;;11.35;4.28;;;14.40;46.00;;;;;;5041646;28;20599;-51
2023/05/03 10:01:22;;;;;;;10.25;4.60;;;14.40;46.00;;;;;;5036661;28;20056;-47
2023/05/03 10:03:50;;;;;;;14.32;5.82;;;14.50;46.00;;;;;;5034036;28;20077;-47
2023/05/03 10:06:25;;;;;;;8.38;4.70;;;14.50;45.10;;;;;;5018382;28;20057;-46
2023/05/03 10:09:00;;;;;;;8.52;4.47;;;14.60;45.10;;;;;;5018616;28;20053;-45
2023/05/03 10:11:28;;;;;;;7.13;3.80;;;14.60;44.50;;;;;;5019116;28;20065;-47
2023/05/03 10:13:56;;;;;;;7.72;4.40;;;14.70;45.00;;;;;;5017565;28;20049;-46
2023/05/03 10:16:29;;;;;;;12.73;4.10;;;14.70;45.30;;;;;;5020871;28;20053;-46
2023/05/03 10:19:04;;;;;;;11.15;5.60;;;14.70;45.20;;;;;;5023639;28;20053;-45
2023/05/03 10:21:42;;;;;;;7.50;3.97;;;14.70;45.30;;;;;;5023421;28;20056;-46
2023/05/03 10:24:12;;;;;;;7.85;4.15;;;14.80;45.20;;;;;;5021879;28;20057;-47
2023/05/03 10:26:41;;;;;;;10.02;4.50;;;14.90;45.30;;;;;;5022422;28;20064;-46
2023/05/03 10:29:47;;;;;;;6.78;4.20;;;14.90;44.90;;;;;;5021084;28;20054;-46
2023/05/03 10:32:45;;;;;;;8.27;3.92;;;14.90;44.60;;;;;;4991332;28;20060;-46
2023/05/03 10:35:15;;;;;;;8.55;3.47;;;15.00;44.90;;;;;;5021019;28;20057;-45
2023/05/03 10:37:44;;;;;;;7.53;3.70;;;15.00;45.30;;;;;;5022912;28;20060;-47
2023/05/03 10:40:16;;;;;;;7.60;4.00;;;15.10;45.20;;;;;;5022593;28;20482;-46
2023/05/03 10:42:45;;;;;;;9.23;4.18;;;15.10;44.90;;;;;;5020051;28;20061;-46
2023/05/03 10:45:23;;;;;;;7.07;3.40;;;15.20;44.50;;;;;;5020274;28;20429;-47
2023/05/03 10:48:19;;;;;;;6.22;3.97;;;15.20;44.30;;;;;;5022966;28;20430;-46
2023/05/03 10:50:47;;;;;;;6.63;3.60;;;15.30;44.40;;;;;;5023135;28;20053;-46
2023/05/03 10:53:43;;;;;;;7.70;3.65;;;15.30;44.40;;;;;;5019869;28;21333;-49
2023/05/03 10:56:14;;;;;;;9.45;3.75;;;15.40;43.80;;;;;;4975929;28;20053;-46
2023/05/03 10:58:44;;;;;;;8.93;3.85;;;15.40;43.70;;;;;;5020763;28;21764;-46
2023/05/03 11:01:12;;;;;;;6.07;3.53;;;15.40;44.20;;;;;;5020815;28;20611;-45
2023/05/03 11:03:47;;;;;;;7.63;3.70;;;15.50;44.20;;;;;;5029695;28;20527;-48
2023/05/03 11:06:31;;;;;;;8.32;3.72;;;15.50;44.00;;;;;;5040090;28;20061;-48
2023/05/03 11:08:58;;;;;;;5.28;3.00;;;15.60;43.70;;;;;;5043163;28;20060;-50
2023/05/03 11:11:27;;;;;;;7.15;3.20;;;15.60;43.80;;;;;;5041854;28;20068;-50
2023/05/03 11:13:54;;;;;;;7.35;2.90;;;15.70;43.70;;;;;;5040262;28;20517;-46
2023/05/03 11:16:22;;;;;;;7.22;3.60;;;15.70;43.70;;;;;;5041090;28;20053;-46
2023/05/03 11:18:50;;;;;;;5.55;3.13;;;15.70;43.70;;;;;;5041722;28;20048;-47
2023/05/03 11:21:17;;;;;;;9.32;3.33;;;15.80;43.60;;;;;;5042038;28;20060;-48
2023/05/03 11:23:45;;;;;;;3.97;2.83;;;15.90;43.50;;;;;;5040327;28;20060;-45
2023/05/03 11:26:14;;;;;;;3.90;2.70;;;15.90;43.40;;;;;;5041186;28;20060;-45
2023/05/03 11:28:44;;;;;;;6.30;2.67;;;15.90;43.30;;;;;;5040632;28;20049;-45
2023/05/03 11:31:12;;;;;;;4.70;2.40;;;16.00;43.60;;;;;;5038331;28;20120;-47
2023/05/03 11:33:41;;;;;;;8.40;3.28;;;16.00;43.40;;;;;;5041744;28;20489;-45
2023/05/03 11:36:08;;;;;;;4.70;2.33;;;16.10;43.20;;;;;;5039308;28;20385;-46
2023/05/03 11:38:38;;;;;;;6.32;2.40;;;16.20;43.40;;;;;;5042084;28;20052;-47
2023/05/03 11:41:13;;;;;;;6.70;2.85;;;16.20;43.10;;;;;;5041775;28;20080;-45
2023/05/03 11:43:45;;;;;;;9.07;3.25;;;16.30;42.20;;;;;;5041901;28;20053;-46
2023/05/03 11:46:16;;;;;;;3.83;2.05;;;16.30;42.60;;;;;;5039644;28;20046;-46
2023/05/03 11:48:44;;;;;;;7.05;3.00;;;16.40;42.50;;;;;;5040733;28;20057;-45
2023/05/03 11:51:12;;;;;;;7.95;2.20;;;16.40;42.30;;;;;;5040269;28;20061;-49
2023/05/03 11:53:41;;;;;;;6.40;2.80;;;16.50;41.90;;;;;;5040008;28;20488;-46
2023/05/03 11:56:12;;;;;;;10.27;2.65;;;16.60;41.30;;;;;;5041233;28;20433;-47
2023/05/03 11:58:52;;;;;;;8.70;2.67;;;16.60;40.60;;;;;;5041447;28;20424;-48
2023/05/03 12:01:21;;;;;;;4.93;2.70;;;16.70;40.60;;;;;;5037448;28;20524;-46
2023/05/03 12:03:52;;;;;;;5.78;2.50;;;16.70;41.10;;;;;;5032000;28;20596;-46
2023/05/03 12:06:20;;;;;;;2.85;2.08;;;16.80;40.80;;;;;;5021547;28;20511;-47
2023/05/03 12:08:47;;;;;;;8.77;2.35;;;16.80;40.90;;;;;;5021742;28;20056;-47
2023/05/03 12:11:14;;;;;;;7.72;2.25;;;16.80;40.90;;;;;;5021562;28;20056;-46
2023/05/03 12:13:42;;;;;;;6.50;2.58;;;16.90;41.30;;;;;;5021080;28;20489;-45
2023/05/03 12:16:13;;;;;;;5.97;2.35;;;16.90;41.00;;;;;;5017706;28;20057;-46
2023/05/03 12:18:52;;;;;;;4.72;2.67;;;17.00;40.80;;;;;;5025570;28;20057;-45
2023/05/03 12:21:20;;;;;;;6.35;2.83;;;17.10;40.60;;;;;;5024967;28;20069;-45
2023/05/03 12:23:50;;;;;;;7.72;3.10;;;17.10;40.30;;;;;;5023478;28;20058;-46
2023/05/03 12:26:18;;;;;;;5.57;2.70;;;17.10;38.40;;;;;;5023367;28;20417;-46
2023/05/03 12:28:46;;;;;;;5.65;2.15;;;17.10;39.50;;;;;;5025730;28;20053;-46
2023/05/03 12:31:16;;;;;;;4.88;2.13;;;17.20;39.80;;;;;;5021007;28;20528;-49
2023/05/03 12:33:43;;;;;;;6.75;2.30;;;17.20;39.80;;;;;;5025102;28;20064;-46
2023/05/03 12:36:11;;;;;;;7.88;2.30;;;17.30;39.90;;;;;;5023861;28;20076;-47
2023/05/03 12:38:38;;;;;;;4.68;2.15;;;17.30;39.80;;;;;;5025042;28;21350;-46
2023/05/03 12:41:05;;;;;;;5.07;2.35;;;17.30;40.10;;;;;;5024117;28;20060;-46
2023/05/03 12:43:32;;;;;;;3.72;2.20;;;17.30;39.90;;;;;;5025438;28;20501;-46
2023/05/03 12:46:01;;;;;;;3.83;2.03;;;17.40;39.90;;;;;;5022083;28;20080;-47
2023/05/03 12:48:31;;;;;;;6.43;2.97;;;17.40;39.90;;;;;;5025821;28;20421;-46
2023/05/03 12:50:58;;;;;;;3.90;1.98;;;17.50;39.90;;;;;;5023083;28;20058;-48
2023/05/03 12:53:25;;;;;;;6.13;2.45;;;17.60;39.90;;;;;;5024497;28;20049;-49